Weather History for Glenwood, MN

Change the Weather History Date:

Wednesday, March 27, 2013

  Actual Average Record
Temperature  
Mean Temperature 24 °F -  
Max Temperature 35 °F 43 °F 63 °F (1968)
Min Temperature 12 °F 25 °F -4 °F (1964)
Degree Days  
Heating Degree Days 42    
Moisture  
Dew Point 17 °F    
Average Humidity 75    
Maximum Humidity 100    
Minimum Humidity 52    
Precipitation  
Precipitation 0.00 in - - ()
Sea Level Pressure  
Sea Level Pressure 30.29 in    
Wind  
Wind Speed 4 mph (ESE)    
Max Wind Speed 10 mph    
Max Gust Speed -    
Visibility 10 miles    
Events      
Averages and records for this station are not official NWS values.
T = Trace of Precipitation, MM = Missing Value Source: NWS Daily Summary

Daily Weather History Graph

Daily Weather History Graph

Search for Another Location

Airport:

Trip Planner

Search our weather history database for the weather conditions in past years. The results will help you decide how hot, cold, wet, or windy it might be!

Date:

Astronomy

Mar. 27, 2013 Rise Set
Actual Time 7:10 AM CDT 7:43 PM CDT
Civil Twilight 6:40 AM CDT 8:13 PM CDT
Nautical Twilight 6:05 AM CDT 8:48 PM CDT
Astronomical Twilight 5:28 AM CDT 9:25 PM CDT
Moon 8:32 PM CDT (3/27) 6:59 AM CDT (3/27)
Length of Visible Light 13h 32m
Length of Day
12h 32m
Full, 100% of the Moon is Illuminated
Mar 27
Full
Apr 2
Last Quarter
Apr 10
New
Apr 18
First Quarter
Apr 25
Full

Hourly Weather History & Observations

Time (CDT) Temp. Windchill Dew Point Humidity Pressure Visibility Wind Dir Wind Speed Gust Speed Precip Events Conditions
12:14 AM 19.4 °F - 17.6 °F 93% 30.28 in 10.0 mi Calm Calm - N/A   Clear
12:33 AM 17.6 °F - 17.6 °F 100% 30.28 in 7.0 mi Calm Calm - N/A   Clear
12:53 AM 17.6 °F - 17.6 °F 100% 30.28 in 7.0 mi Calm Calm - N/A   Clear
1:14 AM 19.4 °F - 17.6 °F 93% 30.28 in 10.0 mi Calm Calm - N/A   Clear
1:33 AM 17.6 °F 12.3 °F 17.6 °F 100% 30.28 in 7.0 mi NNE 3.5 mph - N/A   Clear
1:53 AM 17.6 °F 10.7 °F 15.8 °F 93% 30.29 in 7.0 mi NE 4.6 mph - N/A   Clear
2:14 AM 15.8 °F 10.2 °F 15.8 °F 100% 30.29 in 10.0 mi NE 3.5 mph - N/A   Clear
2:33 AM 15.8 °F - 14.0 °F 93% 30.29 in 10.0 mi Calm Calm - N/A   Clear
2:53 AM 17.6 °F 9.3 °F 15.8 °F 93% 30.29 in 7.0 mi NNE 5.8 mph - N/A   Clear
3:14 AM 15.8 °F 7.2 °F 14.0 °F 93% 30.29 in 10.0 mi NNE 5.8 mph - N/A   Clear
3:33 AM 17.6 °F 9.3 °F 15.8 °F 93% 30.29 in 10.0 mi NNE 5.8 mph - N/A   Clear
3:53 AM 15.8 °F 10.2 °F 14.0 °F 93% 30.28 in 10.0 mi ENE 3.5 mph - N/A   Clear
4:13 AM 15.8 °F 8.6 °F 14.0 °F 93% 30.28 in 10.0 mi East 4.6 mph - N/A   Clear
4:33 AM 15.8 °F 8.6 °F 14.0 °F 93% 30.28 in 10.0 mi East 4.6 mph - N/A   Clear
4:53 AM 15.8 °F 7.2 °F 12.2 °F 86% 30.27 in 10.0 mi East 5.8 mph - N/A   Clear
5:13 AM 14.0 °F 3.9 °F 12.2 °F 93% 30.27 in 10.0 mi East 6.9 mph - N/A   Clear
5:33 AM 12.2 °F 1.7 °F 10.4 °F 92% 30.27 in 10.0 mi ENE 6.9 mph - N/A   Clear
5:53 AM 14.0 °F 3.9 °F 10.4 °F 86% 30.27 in 10.0 mi ENE 6.9 mph - N/A   Clear
6:13 AM 12.2 °F 1.7 °F 10.4 °F 92% 30.27 in 10.0 mi ENE 6.9 mph - N/A   Clear
6:33 AM 12.2 °F 1.7 °F 10.4 °F 92% 30.28 in 10.0 mi East 6.9 mph - N/A   Clear
6:53 AM 12.2 °F 2.9 °F 10.4 °F 92% 30.28 in 10.0 mi East 5.8 mph - N/A   Clear
7:13 AM 14.0 °F 6.5 °F 10.4 °F 86% 30.28 in 10.0 mi East 4.6 mph - N/A   Clear
7:33 AM 14.0 °F 5.1 °F 10.4 °F 86% 30.29 in 10.0 mi East 5.8 mph - N/A   Clear
7:53 AM 12.2 °F 4.3 °F 10.4 °F 92% 30.30 in 10.0 mi East 4.6 mph - N/A   Clear
8:13 AM 14.0 °F 5.1 °F 10.4 °F 86% 30.30 in 10.0 mi East 5.8 mph - N/A   Clear
8:33 AM 15.8 °F 7.2 °F 12.2 °F 86% 30.30 in 10.0 mi East 5.8 mph - N/A   Clear
8:53 AM 17.6 °F 10.7 °F 12.2 °F 79% 30.30 in 10.0 mi East 4.6 mph - N/A   Clear
9:13 AM 17.6 °F 10.7 °F 14.0 °F 86% 30.30 in 10.0 mi East 4.6 mph - N/A   Clear
9:34 AM 19.4 °F 12.8 °F 15.8 °F 86% 30.30 in 10.0 mi East 4.6 mph - N/A   Clear
9:53 AM 21.2 °F 14.9 °F 15.8 °F 80% 30.30 in 10.0 mi East 4.6 mph - N/A   Clear
10:13 AM 24.8 °F 17.9 °F 15.8 °F 69% 30.30 in 10.0 mi East 5.8 mph - N/A   Clear
10:34 AM 26.6 °F 21.2 °F 17.6 °F 69% 30.31 in 10.0 mi ESE 4.6 mph - N/A   Clear
10:53 AM 28.4 °F 23.3 °F 17.6 °F 64% 30.31 in 10.0 mi ESE 4.6 mph - N/A   Clear
11:13 AM 30.2 °F 23.4 °F 17.6 °F 60% 30.31 in 10.0 mi ESE 6.9 mph - N/A   Clear
11:34 AM 30.2 °F 23.4 °F 17.6 °F 60% 30.31 in 10.0 mi ESE 6.9 mph - N/A   Clear
11:53 AM 32.0 °F 25.6 °F 17.6 °F 55% 30.31 in 10.0 mi ESE 6.9 mph - N/A   Clear
12:13 PM 33.8 °F 28.6 °F 19.4 °F 56% 30.31 in 10.0 mi ESE 5.8 mph - N/A   Scattered Clouds
12:34 PM 33.8 °F 28.6 °F 19.4 °F 56% 30.31 in 10.0 mi ESE 5.8 mph - N/A   Mostly Cloudy
12:53 PM 35.6 °F 29.9 °F 19.4 °F 52% 30.31 in 10.0 mi ESE 6.9 mph - N/A   Overcast
1:13 PM 35.6 °F 29.9 °F 21.2 °F 56% 30.31 in 10.0 mi ESE 6.9 mph - N/A   Overcast
1:34 PM 35.6 °F 29.2 °F 23.0 °F 60% 30.31 in 10.0 mi SSE 8.1 mph - N/A   Overcast
1:53 PM 35.6 °F 28.6 °F 21.2 °F 56% 30.31 in 10.0 mi SSE 9.2 mph - N/A   Overcast
2:13 PM 35.6 °F 28.6 °F 21.2 °F 56% 30.30 in 10.0 mi SE 9.2 mph - N/A   Overcast
2:34 PM 35.6 °F 28.6 °F 21.2 °F 56% 30.30 in 10.0 mi SSE 9.2 mph - N/A   Overcast
2:53 PM 35.6 °F 28.0 °F 21.2 °F 56% 30.30 in 10.0 mi SSE 10.4 mph - N/A   Mostly Cloudy
3:13 PM 35.6 °F 29.9 °F 21.2 °F 56% 30.30 in 10.0 mi ESE 6.9 mph - N/A   Scattered Clouds
3:34 PM 35.6 °F 29.2 °F 21.2 °F 56% 30.29 in 10.0 mi SE 8.1 mph - N/A   Scattered Clouds
3:53 PM 35.6 °F 29.2 °F 21.2 °F 56% 30.29 in 10.0 mi SE 8.1 mph - N/A   Scattered Clouds
4:13 PM 35.6 °F 28.6 °F 21.2 °F 56% 30.29 in 10.0 mi SE 9.2 mph - N/A   Mostly Cloudy
4:34 PM 35.6 °F 29.9 °F 21.2 °F 56% 30.29 in 10.0 mi SE 6.9 mph - N/A   Scattered Clouds
4:53 PM 35.6 °F 29.2 °F 21.2 °F 56% 30.29 in 10.0 mi ESE 8.1 mph - N/A   Scattered Clouds
5:13 PM 35.6 °F 29.9 °F 21.2 °F 56% 30.28 in 10.0 mi ESE 6.9 mph - N/A   Scattered Clouds
5:33 PM 35.6 °F 29.2 °F 21.2 °F 56% 30.28 in 10.0 mi SE 8.1 mph - N/A   Scattered Clouds
5:53 PM 33.8 °F 27.7 °F 21.2 °F 60% 30.28 in 10.0 mi SE 6.9 mph - N/A   Clear
6:13 PM 33.8 °F 27.7 °F 24.8 °F 70% 30.28 in 10.0 mi East 6.9 mph - N/A   Clear
6:33 PM 33.8 °F 27.0 °F 24.8 °F 70% 30.28 in 10.0 mi ESE 8.1 mph - N/A   Clear
6:53 PM 32.0 °F 25.6 °F 23.0 °F 69% 30.28 in 10.0 mi ESE 6.9 mph - N/A   Clear
7:14 PM 30.2 °F 23.4 °F 23.0 °F 75% 30.28 in 10.0 mi East 6.9 mph - N/A   Clear
7:33 PM 28.4 °F 22.2 °F 21.2 °F 74% 30.28 in 10.0 mi East 5.8 mph - N/A   Clear
7:53 PM 26.6 °F 19.1 °F 21.2 °F 80% 30.28 in 10.0 mi East 6.9 mph - N/A   Clear
8:14 PM 26.6 °F 20.0 °F 19.4 °F 74% 30.29 in 10.0 mi East 5.8 mph - N/A   Clear
8:33 PM 26.6 °F 20.0 °F 19.4 °F 74% 30.29 in 10.0 mi ESE 5.8 mph - N/A   Clear
8:53 PM 26.6 °F 20.0 °F 19.4 °F 74% 30.29 in 10.0 mi ESE 5.8 mph - N/A   Clear
9:14 PM 26.6 °F 21.2 °F 19.4 °F 74% 30.29 in 10.0 mi ESE 4.6 mph - N/A   Clear
9:33 PM 26.6 °F 21.2 °F 17.6 °F 69% 30.30 in 10.0 mi East 4.6 mph - N/A   Clear
9:53 PM 26.6 °F 21.2 °F 17.6 °F 69% 30.30 in 10.0 mi ESE 4.6 mph - N/A   Clear
10:14 PM 26.6 °F 21.2 °F 17.6 °F 69% 30.30 in 10.0 mi ESE 4.6 mph - N/A   Clear
10:33 PM 26.6 °F 20.0 °F 17.6 °F 69% 30.30 in 10.0 mi ESE 5.8 mph - N/A   Clear
10:53 PM 24.8 °F 19.1 °F 17.6 °F 74% 30.30 in 10.0 mi ESE 4.6 mph - N/A   Clear
11:14 PM 24.8 °F 19.1 °F 17.6 °F 74% 30.30 in 10.0 mi ESE 4.6 mph - N/A   Clear
11:33 PM 24.8 °F 19.1 °F 17.6 °F 74% 30.30 in 10.0 mi ESE 4.6 mph - N/A   Clear
11:53 PM 24.8 °F 17.9 °F 17.6 °F 74% 30.30 in 10.0 mi ESE 5.8 mph - N/A   Clear